sensor_id;sensor_type;location;lat;lon;timestamp;P1;durP1;ratioP1;P2;durP2;ratioP2
1204;SDS011;592;48.764;9.174;2023-11-22T00:02:12;6.57;;;4.17;;
1204;SDS011;592;48.764;9.174;2023-11-22T00:04:38;8.10;;;4.20;;
1204;SDS011;592;48.764;9.174;2023-11-22T00:07:05;9.77;;;4.63;;
1204;SDS011;592;48.764;9.174;2023-11-22T00:09:32;8.23;;;3.77;;
1204;SDS011;592;48.764;9.174;2023-11-22T00:12:00;6.50;;;3.70;;
1204;SDS011;592;48.764;9.174;2023-11-22T00:14:27;5.80;;;1.70;;
1204;SDS011;592;48.764;9.174;2023-11-22T00:16:54;3.60;;;1.60;;
1204;SDS011;592;48.764;9.174;2023-11-22T00:19:21;3.40;;;1.67;;
1204;SDS011;592;48.764;9.174;2023-11-22T00:21:48;3.90;;;2.07;;
1204;SDS011;592;48.764;9.174;2023-11-22T00:24:15;3.37;;;1.73;;
1204;SDS011;592;48.764;9.174;2023-11-22T00:26:43;3.53;;;1.93;;
1204;SDS011;592;48.764;9.174;2023-11-22T00:29:12;3.20;;;1.63;;
1204;SDS011;592;48.764;9.174;2023-11-22T00:31:38;3.00;;;1.70;;
1204;SDS011;592;48.764;9.174;2023-11-22T00:34:05;3.37;;;1.80;;
1204;SDS011;592;48.764;9.174;2023-11-22T00:36:32;4.40;;;2.10;;
1204;SDS011;592;48.764;9.174;2023-11-22T00:38:59;3.23;;;1.63;;
1204;SDS011;592;48.764;9.174;2023-11-22T00:41:29;4.60;;;2.13;;
1204;SDS011;592;48.764;9.174;2023-11-22T00:43:56;3.43;;;1.90;;
1204;SDS011;592;48.764;9.174;2023-11-22T00:46:24;4.70;;;2.30;;
1204;SDS011;592;48.764;9.174;2023-11-22T00:48:51;4.33;;;2.33;;
1204;SDS011;592;48.764;9.174;2023-11-22T00:51:18;5.30;;;2.57;;
1204;SDS011;592;48.764;9.174;2023-11-22T00:53:45;4.23;;;1.97;;
1204;SDS011;592;48.764;9.174;2023-11-22T00:56:12;5.37;;;2.67;;
1204;SDS011;592;48.764;9.174;2023-11-22T00:58:39;6.83;;;2.80;;
1204;SDS011;592;48.764;9.174;2023-11-22T01:01:05;3.67;;;2.27;;
1204;SDS011;592;48.764;9.174;2023-11-22T01:03:34;7.10;;;2.87;;
1204;SDS011;592;48.764;9.174;2023-11-22T01:06:01;7.93;;;3.20;;
1204;SDS011;592;48.764;9.174;2023-11-22T01:08:28;4.83;;;3.00;;
1204;SDS011;592;48.764;9.174;2023-11-22T01:10:55;4.70;;;2.30;;
1204;SDS011;592;48.764;9.174;2023-11-22T01:13:23;7.00;;;3.20;;
1204;SDS011;592;48.764;9.174;2023-11-22T01:15:49;6.07;;;3.07;;
1204;SDS011;592;48.764;9.174;2023-11-22T01:18:16;5.43;;;2.63;;
1204;SDS011;592;48.764;9.174;2023-11-22T01:20:45;4.70;;;2.67;;
1204;SDS011;592;48.764;9.174;2023-11-22T01:23:12;7.00;;;3.20;;
1204;SDS011;592;48.764;9.174;2023-11-22T01:25:39;4.97;;;2.17;;
1204;SDS011;592;48.764;9.174;2023-11-22T01:28:06;4.67;;;2.90;;
1204;SDS011;592;48.764;9.174;2023-11-22T01:30:33;5.50;;;3.00;;
1204;SDS011;592;48.764;9.174;2023-11-22T01:32:59;6.80;;;3.20;;
1204;SDS011;592;48.764;9.174;2023-11-22T01:35:27;5.73;;;3.07;;
1204;SDS011;592;48.764;9.174;2023-11-22T01:37:55;7.90;;;2.23;;
1204;SDS011;592;48.764;9.174;2023-11-22T01:40:23;4.83;;;2.37;;
1204;SDS011;592;48.764;9.174;2023-11-22T01:42:51;5.53;;;2.90;;
1204;SDS011;592;48.764;9.174;2023-11-22T01:45:19;9.67;;;2.83;;
1204;SDS011;592;48.764;9.174;2023-11-22T01:47:47;4.70;;;2.93;;
1204;SDS011;592;48.764;9.174;2023-11-22T01:50:14;5.60;;;3.07;;
1204;SDS011;592;48.764;9.174;2023-11-22T01:52:41;6.50;;;2.50;;
1204;SDS011;592;48.764;9.174;2023-11-22T01:55:10;3.80;;;2.20;;
1204;SDS011;592;48.764;9.174;2023-11-22T01:57:38;6.07;;;2.67;;
1204;SDS011;592;48.764;9.174;2023-11-22T02:00:05;4.40;;;2.17;;
1204;SDS011;592;48.764;9.174;2023-11-22T02:02:33;5.43;;;3.00;;
1204;SDS011;592;48.764;9.174;2023-11-22T02:05:00;4.30;;;2.20;;
1204;SDS011;592;48.764;9.174;2023-11-22T02:07:27;5.00;;;2.50;;
1204;SDS011;592;48.764;9.174;2023-11-22T02:09:54;4.67;;;2.53;;
1204;SDS011;592;48.764;9.174;2023-11-22T02:12:23;5.53;;;2.40;;
1204;SDS011;592;48.764;9.174;2023-11-22T02:14:50;3.73;;;1.90;;
1204;SDS011;592;48.764;9.174;2023-11-22T02:17:17;5.00;;;2.40;;
1204;SDS011;592;48.764;9.174;2023-11-22T02:19:44;3.90;;;2.23;;
1204;SDS011;592;48.764;9.174;2023-11-22T02:22:11;4.67;;;2.37;;
1204;SDS011;592;48.764;9.174;2023-11-22T02:24:39;3.60;;;2.13;;
1204;SDS011;592;48.764;9.174;2023-11-22T02:27:05;3.20;;;1.73;;
1204;SDS011;592;48.764;9.174;2023-11-22T02:29:32;5.17;;;2.53;;
1204;SDS011;592;48.764;9.174;2023-11-22T02:31:59;4.50;;;1.90;;
1204;SDS011;592;48.764;9.174;2023-11-22T02:34:27;4.73;;;1.73;;
1204;SDS011;592;48.764;9.174;2023-11-22T02:36:53;3.03;;;1.40;;
1204;SDS011;592;48.764;9.174;2023-11-22T02:39:20;4.17;;;1.90;;
1204;SDS011;592;48.764;9.174;2023-11-22T02:41:51;3.00;;;1.70;;
1204;SDS011;592;48.764;9.174;2023-11-22T02:44:18;3.47;;;2.13;;
1204;SDS011;592;48.764;9.174;2023-11-22T02:46:44;3.23;;;1.93;;
1204;SDS011;592;48.764;9.174;2023-11-22T02:49:11;3.20;;;1.83;;
1204;SDS011;592;48.764;9.174;2023-11-22T02:51:38;4.03;;;1.83;;
1204;SDS011;592;48.764;9.174;2023-11-22T02:54:05;5.20;;;2.27;;
1204;SDS011;592;48.764;9.174;2023-11-22T02:56:32;7.90;;;2.57;;
1204;SDS011;592;48.764;9.174;2023-11-22T02:59:00;4.43;;;2.13;;
1204;SDS011;592;48.764;9.174;2023-11-22T03:01:27;3.60;;;1.67;;
1204;SDS011;592;48.764;9.174;2023-11-22T03:03:53;4.10;;;2.10;;
1204;SDS011;592;48.764;9.174;2023-11-22T03:06:20;6.80;;;2.60;;
1204;SDS011;592;48.764;9.174;2023-11-22T03:08:47;4.57;;;2.53;;
1204;SDS011;592;48.764;9.174;2023-11-22T03:11:14;3.30;;;2.20;;
1204;SDS011;592;48.764;9.174;2023-11-22T03:13:41;3.70;;;2.10;;
1204;SDS011;592;48.764;9.174;2023-11-22T03:16:10;4.17;;;2.00;;
1204;SDS011;592;48.764;9.174;2023-11-22T03:18:37;3.50;;;1.93;;
1204;SDS011;592;48.764;9.174;2023-11-22T03:21:05;5.17;;;2.70;;
1204;SDS011;592;48.764;9.174;2023-11-22T03:23:32;3.97;;;1.93;;
1204;SDS011;592;48.764;9.174;2023-11-22T03:25:58;4.27;;;2.30;;
1204;SDS011;592;48.764;9.174;2023-11-22T03:28:26;4.30;;;2.20;;
1204;SDS011;592;48.764;9.174;2023-11-22T03:30:55;6.07;;;2.60;;
1204;SDS011;592;48.764;9.174;2023-11-22T03:33:23;3.40;;;1.80;;
1204;SDS011;592;48.764;9.174;2023-11-22T03:35:51;3.30;;;2.00;;
1204;SDS011;592;48.764;9.174;2023-11-22T03:38:19;4.97;;;2.10;;
1204;SDS011;592;48.764;9.174;2023-11-22T03:40:48;4.00;;;2.20;;
1204;SDS011;592;48.764;9.174;2023-11-22T03:43:15;4.33;;;2.20;;
1204;SDS011;592;48.764;9.174;2023-11-22T03:45:42;6.13;;;2.40;;
1204;SDS011;592;48.764;9.174;2023-11-22T03:48:09;3.80;;;1.77;;
1204;SDS011;592;48.764;9.174;2023-11-22T03:50:37;4.30;;;2.60;;
1204;SDS011;592;48.764;9.174;2023-11-22T03:53:04;4.13;;;1.80;;
1204;SDS011;592;48.764;9.174;2023-11-22T03:55:31;6.00;;;1.93;;
1204;SDS011;592;48.764;9.174;2023-11-22T03:57:57;3.90;;;2.23;;
1204;SDS011;592;48.764;9.174;2023-11-22T04:00:24;3.63;;;1.77;;
1204;SDS011;592;48.764;9.174;2023-11-22T04:02:51;4.73;;;2.33;;
1204;SDS011;592;48.764;9.174;2023-11-22T04:05:19;3.53;;;1.80;;
1204;SDS011;592;48.764;9.174;2023-11-22T04:07:47;4.90;;;2.43;;
1204;SDS011;592;48.764;9.174;2023-11-22T04:10:14;6.13;;;2.20;;
1204;SDS011;592;48.764;9.174;2023-11-22T04:12:41;12.03;;;2.73;;
1204;SDS011;592;48.764;9.174;2023-11-22T04:15:08;5.90;;;3.00;;
1204;SDS011;592;48.764;9.174;2023-11-22T04:17:35;4.10;;;2.10;;
1204;SDS011;592;48.764;9.174;2023-11-22T04:20:03;5.17;;;2.23;;
1204;SDS011;592;48.764;9.174;2023-11-22T04:22:34;7.20;;;2.40;;
1204;SDS011;592;48.764;9.174;2023-11-22T04:25:02;6.00;;;2.00;;
1204;SDS011;592;48.764;9.174;2023-11-22T04:27:29;5.00;;;2.77;;
1204;SDS011;592;48.764;9.174;2023-11-22T04:29:56;5.13;;;3.07;;
1204;SDS011;592;48.764;9.174;2023-11-22T04:32:23;7.43;;;3.30;;
1204;SDS011;592;48.764;9.174;2023-11-22T04:34:49;3.90;;;2.20;;
1204;SDS011;592;48.764;9.174;2023-11-22T04:37:16;3.50;;;2.10;;
1204;SDS011;592;48.764;9.174;2023-11-22T04:39:43;4.47;;;2.40;;
1204;SDS011;592;48.764;9.174;2023-11-22T04:42:11;5.90;;;2.80;;
1204;SDS011;592;48.764;9.174;2023-11-22T04:44:38;6.20;;;2.23;;
1204;SDS011;592;48.764;9.174;2023-11-22T04:47:05;3.63;;;2.10;;
1204;SDS011;592;48.764;9.174;2023-11-22T04:49:31;3.73;;;2.00;;
1204;SDS011;592;48.764;9.174;2023-11-22T04:51:58;6.60;;;2.70;;
1204;SDS011;592;48.764;9.174;2023-11-22T04:54:26;3.60;;;2.13;;
1204;SDS011;592;48.764;9.174;2023-11-22T04:56:53;4.93;;;2.20;;
1204;SDS011;592;48.764;9.174;2023-11-22T04:59:22;3.27;;;2.03;;
1204;SDS011;592;48.764;9.174;2023-11-22T05:01:48;4.73;;;2.80;;
1204;SDS011;592;48.764;9.174;2023-11-22T05:04:15;3.97;;;2.03;;
1204;SDS011;592;48.764;9.174;2023-11-22T05:06:43;7.70;;;2.80;;
1204;SDS011;592;48.764;9.174;2023-11-22T05:09:11;4.73;;;2.27;;
1204;SDS011;592;48.764;9.174;2023-11-22T05:11:39;8.33;;;2.60;;
1204;SDS011;592;48.764;9.174;2023-11-22T05:14:07;7.10;;;2.70;;
1204;SDS011;592;48.764;9.174;2023-11-22T05:16:35;4.80;;;2.10;;
1204;SDS011;592;48.764;9.174;2023-11-22T05:19:02;5.47;;;2.70;;
1204;SDS011;592;48.764;9.174;2023-11-22T05:21:28;4.03;;;2.33;;
1204;SDS011;592;48.764;9.174;2023-11-22T05:23:55;4.23;;;2.13;;
1204;SDS011;592;48.764;9.174;2023-11-22T05:26:22;4.00;;;2.30;;
1204;SDS011;592;48.764;9.174;2023-11-22T05:28:49;4.30;;;2.20;;
1204;SDS011;592;48.764;9.174;2023-11-22T05:31:18;2.93;;;1.57;;
1204;SDS011;592;48.764;9.174;2023-11-22T05:33:47;3.73;;;2.27;;
1204;SDS011;592;48.764;9.174;2023-11-22T05:36:13;4.10;;;2.10;;
1204;SDS011;592;48.764;9.174;2023-11-22T05:38:41;3.10;;;1.63;;
1204;SDS011;592;48.764;9.174;2023-11-22T05:41:08;4.63;;;2.43;;
1204;SDS011;592;48.764;9.174;2023-11-22T05:43:35;4.40;;;2.27;;
1204;SDS011;592;48.764;9.174;2023-11-22T05:46:02;4.73;;;2.40;;
1204;SDS011;592;48.764;9.174;2023-11-22T05:48:29;4.53;;;2.17;;
1204;SDS011;592;48.764;9.174;2023-11-22T05:50:57;4.20;;;1.90;;
1204;SDS011;592;48.764;9.174;2023-11-22T05:53:24;3.60;;;1.80;;
1204;SDS011;592;48.764;9.174;2023-11-22T05:55:51;6.67;;;1.80;;
1204;SDS011;592;48.764;9.174;2023-11-22T05:58:18;5.70;;;2.43;;
1204;SDS011;592;48.764;9.174;2023-11-22T06:00:46;6.07;;;2.60;;
1204;SDS011;592;48.764;9.174;2023-11-22T06:03:13;3.37;;;1.90;;
1204;SDS011;592;48.764;9.174;2023-11-22T06:05:40;3.00;;;1.60;;
1204;SDS011;592;48.764;9.174;2023-11-22T06:08:08;4.10;;;2.50;;
1204;SDS011;592;48.764;9.174;2023-11-22T06:10:49;8.80;;;2.87;;
1204;SDS011;592;48.764;9.174;2023-11-22T06:13:25;5.77;;;2.60;;
1204;SDS011;592;48.764;9.174;2023-11-22T06:15:53;3.77;;;2.00;;
1204;SDS011;592;48.764;9.174;2023-11-22T06:18:24;4.67;;;2.10;;
1204;SDS011;592;48.764;9.174;2023-11-22T06:20:55;6.20;;;2.33;;
1204;SDS011;592;48.764;9.174;2023-11-22T06:23:24;4.83;;;1.93;;
1204;SDS011;592;48.764;9.174;2023-11-22T06:25:50;3.30;;;1.90;;
1204;SDS011;592;48.764;9.174;2023-11-22T06:28:17;5.87;;;2.70;;
1204;SDS011;592;48.764;9.174;2023-11-22T06:30:44;6.60;;;2.93;;
1204;SDS011;592;48.764;9.174;2023-11-22T06:33:10;4.73;;;2.30;;
1204;SDS011;592;48.764;9.174;2023-11-22T06:35:37;4.70;;;2.57;;
1204;SDS011;592;48.764;9.174;2023-11-22T06:38:04;3.53;;;1.87;;
1204;SDS011;592;48.764;9.174;2023-11-22T06:40:32;5.77;;;2.00;;
1204;SDS011;592;48.764;9.174;2023-11-22T06:42:58;2.60;;;1.30;;
1204;SDS011;592;48.764;9.174;2023-11-22T06:45:25;5.90;;;2.33;;
1204;SDS011;592;48.764;9.174;2023-11-22T06:47:52;3.00;;;1.60;;
1204;SDS011;592;48.764;9.174;2023-11-22T06:50:19;4.30;;;1.93;;
1204;SDS011;592;48.764;9.174;2023-11-22T06:52:45;3.40;;;1.93;;
1204;SDS011;592;48.764;9.174;2023-11-22T06:55:14;3.53;;;1.90;;
1204;SDS011;592;48.764;9.174;2023-11-22T06:57:43;3.80;;;1.77;;
1204;SDS011;592;48.764;9.174;2023-11-22T07:00:11;8.63;;;2.50;;
1204;SDS011;592;48.764;9.174;2023-11-22T07:02:38;3.50;;;1.70;;
1204;SDS011;592;48.764;9.174;2023-11-22T07:05:05;16.00;;;2.90;;
1204;SDS011;592;48.764;9.174;2023-11-22T07:07:33;3.83;;;1.57;;
1204;SDS011;592;48.764;9.174;2023-11-22T07:10:00;4.83;;;2.00;;
1204;SDS011;592;48.764;9.174;2023-11-22T07:12:30;4.73;;;2.30;;
1204;SDS011;592;48.764;9.174;2023-11-22T07:14:58;4.47;;;2.10;;
1204;SDS011;592;48.764;9.174;2023-11-22T07:17:25;3.73;;;1.67;;
1204;SDS011;592;48.764;9.174;2023-11-22T07:19:53;3.00;;;1.50;;
1204;SDS011;592;48.764;9.174;2023-11-22T07:22:20;4.40;;;2.13;;
1204;SDS011;592;48.764;9.174;2023-11-22T07:24:48;2.77;;;1.40;;
1204;SDS011;592;48.764;9.174;2023-11-22T07:27:16;3.43;;;1.63;;
1204;SDS011;592;48.764;9.174;2023-11-22T07:29:43;3.10;;;1.50;;
1204;SDS011;592;48.764;9.174;2023-11-22T07:32:13;5.00;;;1.67;;
1204;SDS011;592;48.764;9.174;2023-11-22T07:34:40;3.00;;;1.47;;
1204;SDS011;592;48.764;9.174;2023-11-22T07:37:07;4.10;;;1.63;;
1204;SDS011;592;48.764;9.174;2023-11-22T07:39:34;8.70;;;1.73;;
1204;SDS011;592;48.764;9.174;2023-11-22T07:44:44;3.43;;;1.63;;
1204;SDS011;592;48.764;9.174;2023-11-22T07:47:12;3.27;;;1.77;;
1204;SDS011;592;48.764;9.174;2023-11-22T07:49:40;3.53;;;1.77;;
1204;SDS011;592;48.764;9.174;2023-11-22T07:52:08;4.87;;;2.20;;
1204;SDS011;592;48.764;9.174;2023-11-22T07:54:38;3.87;;;1.80;;
1204;SDS011;592;48.764;9.174;2023-11-22T07:57:05;4.70;;;2.20;;
1204;SDS011;592;48.764;9.174;2023-11-22T07:59:32;5.10;;;1.63;;
1204;SDS011;592;48.764;9.174;2023-11-22T08:01:59;3.00;;;1.53;;
1204;SDS011;592;48.764;9.174;2023-11-22T08:04:29;2.60;;;1.33;;
1204;SDS011;592;48.764;9.174;2023-11-22T08:06:57;3.87;;;1.90;;
1204;SDS011;592;48.764;9.174;2023-11-22T08:09:24;3.10;;;1.80;;
1204;SDS011;592;48.764;9.174;2023-11-22T08:17:23;3.43;;;1.97;;
1204;SDS011;592;48.764;9.174;2023-11-22T08:19:53;6.93;;;2.87;;
1204;SDS011;592;48.764;9.174;2023-11-22T08:22:20;5.00;;;2.10;;
1204;SDS011;592;48.764;9.174;2023-11-22T08:24:47;3.57;;;1.60;;
1204;SDS011;592;48.764;9.174;2023-11-22T08:27:14;4.30;;;1.73;;
1204;SDS011;592;48.764;9.174;2023-11-22T08:29:42;3.93;;;1.70;;
1204;SDS011;592;48.764;9.174;2023-11-22T08:32:17;3.67;;;1.73;;
1204;SDS011;592;48.764;9.174;2023-11-22T08:34:54;3.17;;;1.70;;
1204;SDS011;592;48.764;9.174;2023-11-22T08:37:21;4.80;;;2.27;;
1204;SDS011;592;48.764;9.174;2023-11-22T08:39:48;2.73;;;1.57;;
1204;SDS011;592;48.764;9.174;2023-11-22T08:42:22;3.53;;;1.67;;
1204;SDS011;592;48.764;9.174;2023-11-22T08:44:49;2.97;;;1.57;;
1204;SDS011;592;48.764;9.174;2023-11-22T08:47:16;6.13;;;2.20;;
1204;SDS011;592;48.764;9.174;2023-11-22T08:49:43;3.33;;;1.60;;
1204;SDS011;592;48.764;9.174;2023-11-22T08:55:07;5.33;;;1.67;;
1204;SDS011;592;48.764;9.174;2023-11-22T09:00:33;5.00;;;2.17;;
1204;SDS011;592;48.764;9.174;2023-11-22T09:03:00;4.10;;;1.83;;
1204;SDS011;592;48.764;9.174;2023-11-22T09:05:28;4.13;;;1.87;;
1204;SDS011;592;48.764;9.174;2023-11-22T09:07:55;3.70;;;2.10;;
1204;SDS011;592;48.764;9.174;2023-11-22T09:10:25;6.10;;;2.30;;
1204;SDS011;592;48.764;9.174;2023-11-22T09:12:52;4.63;;;2.33;;
1204;SDS011;592;48.764;9.174;2023-11-22T09:15:19;5.50;;;2.00;;
1204;SDS011;592;48.764;9.174;2023-11-22T09:17:51;7.03;;;2.57;;
1204;SDS011;592;48.764;9.174;2023-11-22T09:20:19;7.70;;;2.40;;
1204;SDS011;592;48.764;9.174;2023-11-22T09:22:46;3.77;;;1.80;;
1204;SDS011;592;48.764;9.174;2023-11-22T09:25:14;3.33;;;1.80;;
1204;SDS011;592;48.764;9.174;2023-11-22T09:31:28;4.00;;;1.90;;
1204;SDS011;592;48.764;9.174;2023-11-22T09:33:55;4.77;;;2.27;;
1204;SDS011;592;48.764;9.174;2023-11-22T09:36:22;5.63;;;2.77;;
1204;SDS011;592;48.764;9.174;2023-11-22T09:38:54;5.97;;;2.43;;
1204;SDS011;592;48.764;9.174;2023-11-22T09:47:21;6.07;;;2.37;;
1204;SDS011;592;48.764;9.174;2023-11-22T09:55:00;4.30;;;2.20;;
1204;SDS011;592;48.764;9.174;2023-11-22T09:57:28;3.60;;;2.07;;
1204;SDS011;592;48.764;9.174;2023-11-22T09:59:58;4.63;;;2.60;;
1204;SDS011;592;48.764;9.174;2023-11-22T10:02:28;5.33;;;2.47;;
1204;SDS011;592;48.764;9.174;2023-11-22T10:07:55;4.30;;;2.53;;
1204;SDS011;592;48.764;9.174;2023-11-22T10:26:15;5.17;;;2.90;;
1204;SDS011;592;48.764;9.174;2023-11-22T10:31:24;4.80;;;2.30;;
1204;SDS011;592;48.764;9.174;2023-11-22T10:33:51;9.20;;;2.83;;
1204;SDS011;592;48.764;9.174;2023-11-22T10:36:22;4.97;;;2.87;;
1204;SDS011;592;48.764;9.174;2023-11-22T10:38:50;5.10;;;3.20;;
1204;SDS011;592;48.764;9.174;2023-11-22T10:41:19;3.97;;;1.97;;
1204;SDS011;592;48.764;9.174;2023-11-22T10:43:47;3.70;;;2.20;;
1204;SDS011;592;48.764;9.174;2023-11-22T10:46:17;3.57;;;2.10;;
1204;SDS011;592;48.764;9.174;2023-11-22T10:48:46;6.80;;;2.70;;
1204;SDS011;592;48.764;9.174;2023-11-22T10:51:30;5.40;;;2.63;;
1204;SDS011;592;48.764;9.174;2023-11-22T10:53:58;4.80;;;2.77;;
1204;SDS011;592;48.764;9.174;2023-11-22T10:56:30;4.47;;;2.33;;
1204;SDS011;592;48.764;9.174;2023-11-22T10:59:02;5.37;;;3.20;;
1204;SDS011;592;48.764;9.174;2023-11-22T11:01:37;5.13;;;2.87;;
1204;SDS011;592;48.764;9.174;2023-11-22T11:04:15;6.23;;;3.03;;
1204;SDS011;592;48.764;9.174;2023-11-22T11:06:57;5.20;;;2.80;;
1204;SDS011;592;48.764;9.174;2023-11-22T11:12:18;5.53;;;3.00;;
1204;SDS011;592;48.764;9.174;2023-11-22T11:14:46;5.73;;;3.20;;
1204;SDS011;592;48.764;9.174;2023-11-22T11:17:14;3.40;;;2.30;;
1204;SDS011;592;48.764;9.174;2023-11-22T11:19:43;4.23;;;2.43;;
1204;SDS011;592;48.764;9.174;2023-11-22T11:22:12;7.00;;;2.70;;
1204;SDS011;592;48.764;9.174;2023-11-22T11:24:39;5.63;;;2.80;;
1204;SDS011;592;48.764;9.174;2023-11-22T11:27:09;3.50;;;2.07;;
1204;SDS011;592;48.764;9.174;2023-11-22T11:29:38;5.60;;;2.80;;
1204;SDS011;592;48.764;9.174;2023-11-22T11:32:09;4.23;;;2.70;;
1204;SDS011;592;48.764;9.174;2023-11-22T11:34:41;5.47;;;3.10;;
1204;SDS011;592;48.764;9.174;2023-11-22T11:37:14;5.07;;;3.10;;
1204;SDS011;592;48.764;9.174;2023-11-22T11:39:41;6.60;;;2.63;;
1204;SDS011;592;48.764;9.174;2023-11-22T11:42:08;9.73;;;3.10;;
1204;SDS011;592;48.764;9.174;2023-11-22T11:44:35;4.93;;;3.00;;
1204;SDS011;592;48.764;9.174;2023-11-22T11:47:16;5.60;;;3.30;;
1204;SDS011;592;48.764;9.174;2023-11-22T11:49:43;6.60;;;3.20;;
1204;SDS011;592;48.764;9.174;2023-11-22T11:52:10;6.20;;;3.20;;
1204;SDS011;592;48.764;9.174;2023-11-22T11:54:37;7.00;;;3.13;;
1204;SDS011;592;48.764;9.174;2023-11-22T11:57:05;6.43;;;2.90;;
1204;SDS011;592;48.764;9.174;2023-11-22T11:59:33;7.80;;;3.10;;
1204;SDS011;592;48.764;9.174;2023-11-22T12:02:02;5.07;;;3.00;;
1204;SDS011;592;48.764;9.174;2023-11-22T12:04:30;5.00;;;2.83;;
1204;SDS011;592;48.764;9.174;2023-11-22T12:06:57;5.43;;;2.40;;
1204;SDS011;592;48.764;9.174;2023-11-22T12:09:24;3.23;;;2.03;;
1204;SDS011;592;48.764;9.174;2023-11-22T12:11:51;4.60;;;2.67;;
1204;SDS011;592;48.764;9.174;2023-11-22T12:14:19;6.40;;;3.10;;
